sensor_id;sensor_type;location;lat;lon;timestamp;pressure;altitude;pressure_sealevel;temperature;humidity
6837;BME280;3456;42.136;24.736;2023-05-23T10:15:47;152828.00;;;24.20;59.49
6837;BME280;3456;42.136;24.736;2023-05-23T19:47:31;151517.28;;;19.05;100.00
6837;BME280;3456;42.136;24.736;2023-05-23T19:50:02;151479.13;;;18.90;100.00
6837;BME280;3456;42.136;24.736;2023-05-23T19:52:31;151451.16;;;18.79;100.00
6837;BME280;3456;42.136;24.736;2023-05-23T19:55:00;151471.50;;;18.87;100.00
6837;BME280;3456;42.136;24.736;2023-05-23T19:57:30;151425.69;;;18.69;100.00
6837;BME280;3456;42.136;24.736;2023-05-23T19:59:59;151386.28;;;18.53;100.00
6837;BME280;3456;42.136;24.736;2023-05-23T20:02:30;151377.38;;;18.50;100.00
6837;BME280;3456;42.136;24.736;2023-05-23T20:04:59;151237.44;;;17.95;100.00
6837;BME280;3456;42.136;24.736;2023-05-23T20:07:28;151318.84;;;18.27;100.00
6837;BME280;3456;42.136;24.736;2023-05-23T20:09:57;151227.28;;;17.91;100.00
6837;BME280;3456;42.136;24.736;2023-05-23T20:12:26;151214.56;;;17.86;100.00
6837;BME280;3456;42.136;24.736;2023-05-23T20:14:55;151257.81;;;18.03;100.00
6837;BME280;3456;42.136;24.736;2023-05-23T20:17:23;151323.91;;;18.29;100.00
6837;BME280;3456;42.136;24.736;2023-05-23T20:19:56;151237.44;;;17.95;100.00
6837;BME280;3456;42.136;24.736;2023-05-23T20:22:26;151298.50;;;18.19;100.00
6837;BME280;3456;42.136;24.736;2023-05-23T20:24:54;151206.94;;;17.83;100.00
6837;BME280;3456;42.136;24.736;2023-05-23T20:27:23;151115.47;;;17.46;100.00
6837;BME280;3456;42.136;24.736;2023-05-23T20:29:52;151269.25;;;18.07;100.00
6837;BME280;3456;42.136;24.736;2023-05-23T20:32:21;151285.81;;;18.14;100.00
6837;BME280;3456;42.136;24.736;2023-05-23T20:34:49;151273.06;;;18.09;100.00
6837;BME280;3456;42.136;24.736;2023-05-23T20:37:21;151293.44;;;18.17;100.00
6837;BME280;3456;42.136;24.736;2023-05-23T20:39:49;151308.66;;;18.23;100.00
6837;BME280;3456;42.136;24.736;2023-05-23T20:42:18;151331.53;;;18.32;100.00
6837;BME280;3456;42.136;24.736;2023-05-23T20:44:47;151313.75;;;18.25;100.00
6837;BME280;3456;42.136;24.736;2023-05-23T20:47:16;151364.69;;;18.45;100.00
6837;BME280;3456;42.136;24.736;2023-05-23T20:49:44;151400.28;;;18.59;100.00
6837;BME280;3456;42.136;24.736;2023-05-23T20:52:14;151407.91;;;18.62;100.00
6837;BME280;3456;42.136;24.736;2023-05-23T20:54:45;151397.75;;;18.58;100.00
6837;BME280;3456;42.136;24.736;2023-05-23T20:57:14;151346.84;;;18.38;100.00
6837;BME280;3456;42.136;24.736;2023-05-23T20:59:44;151329.00;;;18.31;100.00
6837;BME280;3456;42.136;24.736;2023-05-23T21:02:14;151115.47;;;17.46;100.00
6837;BME280;3456;42.136;24.736;2023-05-23T21:04:42;151189.16;;;17.76;100.00
6837;BME280;3456;42.136;24.736;2023-05-23T21:07:11;151153.59;;;17.62;100.00
6837;BME280;3456;42.136;24.736;2023-05-23T21:09:40;151123.09;;;17.49;100.00
6837;BME280;3456;42.136;24.736;2023-05-23T21:12:12;151123.09;;;17.49;100.00
6837;BME280;3456;42.136;24.736;2023-05-23T21:14:40;151135.78;;;17.54;100.00
6837;BME280;3456;42.136;24.736;2023-05-23T21:17:09;151114.19;;;17.46;100.00
6837;BME280;3456;42.136;24.736;2023-05-23T21:19:38;151128.16;;;17.51;100.00
6837;BME280;3456;42.136;24.736;2023-05-23T21:22:06;151148.50;;;17.59;100.00
6837;BME280;3456;42.136;24.736;2023-05-23T21:24:35;151118.00;;;17.47;100.00
6837;BME280;3456;42.136;24.736;2023-05-23T21:27:04;151021.41;;;17.09;100.00
6837;BME280;3456;42.136;24.736;2023-05-23T21:29:36;151002.34;;;17.02;100.00
6837;BME280;3456;42.136;24.736;2023-05-23T21:32:05;151077.28;;;17.31;100.00
6837;BME280;3456;42.136;24.736;2023-05-23T21:34:33;150976.91;;;16.92;100.00
6837;BME280;3456;42.136;24.736;2023-05-23T21:37:02;151084.91;;;17.34;100.00
6837;BME280;3456;42.136;24.736;2023-05-23T21:39:31;151054.41;;;17.22;100.00
6837;BME280;3456;42.136;24.736;2023-05-23T21:42:00;151087.44;;;17.35;100.00
6837;BME280;3456;42.136;24.736;2023-05-23T21:44:29;151027.75;;;17.12;100.00
6837;BME280;3456;42.136;24.736;2023-05-23T21:47:00;151088.72;;;17.36;100.00
6837;BME280;3456;42.136;24.736;2023-05-23T21:49:29;151065.84;;;17.27;100.00
6837;BME280;3456;42.136;24.736;2023-05-23T21:52:00;151001.06;;;17.01;100.00
6837;BME280;3456;42.136;24.736;2023-05-23T21:54:28;151082.34;;;17.33;100.00
6837;BME280;3456;42.136;24.736;2023-05-23T21:56:58;151092.53;;;17.37;100.00
6837;BME280;3456;42.136;24.736;2023-05-23T21:59:26;150874.06;;;16.51;100.00
6837;BME280;3456;42.136;24.736;2023-05-23T22:01:55;151074.72;;;17.30;100.00
6837;BME280;3456;42.136;24.736;2023-05-23T22:04:26;151083.63;;;17.34;100.00
6837;BME280;3456;42.136;24.736;2023-05-23T22:06:57;151087.44;;;17.35;100.00
6837;BME280;3456;42.136;24.736;2023-05-23T22:09:25;151074.72;;;17.30;100.00
6837;BME280;3456;42.136;24.736;2023-05-23T22:11:54;151078.53;;;17.32;100.00
6837;BME280;3456;42.136;24.736;2023-05-23T22:14:43;150853.72;;;16.43;100.00
6837;BME280;3456;42.136;24.736;2023-05-23T22:17:17;150896.94;;;16.60;100.00
6837;BME280;3456;42.136;24.736;2023-05-23T22:20:01;150915.97;;;16.68;100.00
6837;BME280;3456;42.136;24.736;2023-05-23T22:22:30;151008.69;;;17.04;100.00
6837;BME280;3456;42.136;24.736;2023-05-23T22:24:59;150957.84;;;16.84;100.00
6837;BME280;3456;42.136;24.736;2023-05-23T22:27:27;150970.56;;;16.89;100.00
6837;BME280;3456;42.136;24.736;2023-05-23T22:29:57;150828.28;;;16.33;100.00
6837;BME280;3456;42.136;24.736;2023-05-23T22:32:25;150968.03;;;16.88;100.00
6837;BME280;3456;42.136;24.736;2023-05-23T22:34:54;150968.03;;;16.88;100.00
6837;BME280;3456;42.136;24.736;2023-05-23T22:37:25;150828.28;;;16.33;100.00
6837;BME280;3456;42.136;24.736;2023-05-23T22:39:54;150901.97;;;16.62;100.00
6837;BME280;3456;42.136;24.736;2023-05-23T22:42:23;150874.06;;;16.51;100.00
6837;BME280;3456;42.136;24.736;2023-05-23T22:44:51;150924.84;;;16.71;100.00
6837;BME280;3456;42.136;24.736;2023-05-23T22:47:21;150988.34;;;16.96;100.00
6837;BME280;3456;42.136;24.736;2023-05-23T22:49:50;150899.44;;;16.61;100.00
6837;BME280;3456;42.136;24.736;2023-05-23T22:52:21;150950.22;;;16.81;100.00
6837;BME280;3456;42.136;24.736;2023-05-23T22:54:53;150810.53;;;16.26;100.00
6837;BME280;3456;42.136;24.736;2023-05-23T22:57:22;150754.63;;;16.04;100.00
6837;BME280;3456;42.136;24.736;2023-05-23T22:59:51;150838.44;;;16.37;100.00
6837;BME280;3456;42.136;24.736;2023-05-23T23:02:19;150866.44;;;16.48;100.00
6837;BME280;3456;42.136;24.736;2023-05-23T23:04:48;150879.09;;;16.53;100.00
6837;BME280;3456;42.136;24.736;2023-05-23T23:07:17;150894.34;;;16.59;100.00
6837;BME280;3456;42.136;24.736;2023-05-23T23:09:46;150815.56;;;16.28;100.00
6837;BME280;3456;42.136;24.736;2023-05-23T23:12:17;150729.25;;;15.94;100.00
6837;BME280;3456;42.136;24.736;2023-05-23T23:14:46;150738.16;;;15.98;100.00
6837;BME280;3456;42.136;24.736;2023-05-23T23:17:15;150780.06;;;16.14;100.00
6837;BME280;3456;42.136;24.736;2023-05-23T23:19:43;150627.75;;;15.54;100.00
6837;BME280;3456;42.136;24.736;2023-05-23T23:22:14;150833.34;;;16.35;100.00
6837;BME280;3456;42.136;24.736;2023-05-23T23:24:43;150774.97;;;16.12;100.00
6837;BME280;3456;42.136;24.736;2023-05-23T23:27:12;150714.03;;;15.88;100.00
6837;BME280;3456;42.136;24.736;2023-05-23T23:29:44;150715.31;;;15.89;100.00
6837;BME280;3456;42.136;24.736;2023-05-23T23:32:12;150693.75;;;15.80;100.00
6837;BME280;3456;42.136;24.736;2023-05-23T23:34:41;150703.88;;;15.84;100.00
6837;BME280;3456;42.136;24.736;2023-05-23T23:37:10;150478.00;;;14.95;100.00
6837;BME280;3456;42.136;24.736;2023-05-23T23:39:39;150592.25;;;15.40;100.00
6837;BME280;3456;42.136;24.736;2023-05-23T23:42:07;150617.59;;;15.50;100.00
6837;BME280;3456;42.136;24.736;2023-05-23T23:44:36;150505.88;;;15.06;100.00
6837;BME280;3456;42.136;24.736;2023-05-23T23:47:08;150532.53;;;15.16;100.00
6837;BME280;3456;42.136;24.736;2023-05-23T23:49:36;150621.41;;;15.51;100.00
6837;BME280;3456;42.136;24.736;2023-05-23T23:52:06;150610.00;;;15.47;100.00
6837;BME280;3456;42.136;24.736;2023-05-23T23:54:35;150616.31;;;15.49;100.00
6837;BME280;3456;42.136;24.736;2023-05-23T23:57:04;150565.53;;;15.29;100.00
6837;BME280;3456;42.136;24.736;2023-05-23T23:59:38;150592.25;;;15.40;100.00
